sensor_id;sensor_type;location;lat;lon;timestamp;P1;durP1;ratioP1;P2;durP2;ratioP2
2762;SDS011;1389;51.490;7.338;2022-10-16T00:01:04;234.60;;;50.17;;
2762;SDS011;1389;51.490;7.338;2022-10-16T00:03:30;236.35;;;52.45;;
2762;SDS011;1389;51.490;7.338;2022-10-16T00:05:58;276.42;;;114.40;;
2762;SDS011;1389;51.490;7.338;2022-10-16T00:08:25;338.98;;;214.10;;
2762;SDS011;1389;51.490;7.338;2022-10-16T00:10:52;342.92;;;213.45;;
2762;SDS011;1389;51.490;7.338;2022-10-16T00:13:18;400.63;;;303.90;;
2762;SDS011;1389;51.490;7.338;2022-10-16T00:15:46;327.23;;;192.25;;
2762;SDS011;1389;51.490;7.338;2022-10-16T00:18:12;337.00;;;201.25;;
2762;SDS011;1389;51.490;7.338;2022-10-16T00:20:39;341.83;;;219.37;;
2762;SDS011;1389;51.490;7.338;2022-10-16T00:23:06;387.42;;;285.23;;
2762;SDS011;1389;51.490;7.338;2022-10-16T00:25:32;239.63;;;58.45;;
2762;SDS011;1389;51.490;7.338;2022-10-16T00:27:59;219.25;;;35.75;;
2762;SDS011;1389;51.490;7.338;2022-10-16T00:30:26;209.63;;;26.70;;
2762;SDS011;1389;51.490;7.338;2022-10-16T00:32:53;208.95;;;25.30;;
2762;SDS011;1389;51.490;7.338;2022-10-16T00:35:19;208.82;;;25.23;;
2762;SDS011;1389;51.490;7.338;2022-10-16T00:37:45;207.03;;;23.30;;
2762;SDS011;1389;51.490;7.338;2022-10-16T00:40:12;207.18;;;23.65;;
2762;SDS011;1389;51.490;7.338;2022-10-16T00:42:38;206.40;;;22.90;;
2762;SDS011;1389;51.490;7.338;2022-10-16T00:45:05;207.30;;;23.50;;
2762;SDS011;1389;51.490;7.338;2022-10-16T00:47:34;206.80;;;22.40;;
2762;SDS011;1389;51.490;7.338;2022-10-16T00:50:11;205.93;;;21.60;;
2762;SDS011;1389;51.490;7.338;2022-10-16T00:52:40;210.57;;;25.65;;
2762;SDS011;1389;51.490;7.338;2022-10-16T00:55:07;213.97;;;29.63;;
2762;SDS011;1389;51.490;7.338;2022-10-16T00:57:35;219.00;;;34.83;;
2762;SDS011;1389;51.490;7.338;2022-10-16T01:00:03;212.55;;;27.95;;
2762;SDS011;1389;51.490;7.338;2022-10-16T01:02:30;215.10;;;31.00;;
2762;SDS011;1389;51.490;7.338;2022-10-16T01:04:56;206.30;;;22.92;;
2762;SDS011;1389;51.490;7.338;2022-10-16T01:12:48;230.82;;;50.25;;
2762;SDS011;1389;51.490;7.338;2022-10-16T01:15:25;224.05;;;40.55;;
2762;SDS011;1389;51.490;7.338;2022-10-16T01:17:58;217.70;;;31.10;;
2762;SDS011;1389;51.490;7.338;2022-10-16T01:20:30;218.83;;;32.20;;
2762;SDS011;1389;51.490;7.338;2022-10-16T01:25:36;217.77;;;30.30;;
2762;SDS011;1389;51.490;7.338;2022-10-16T01:28:03;219.55;;;32.85;;
2762;SDS011;1389;51.490;7.338;2022-10-16T01:30:32;221.82;;;35.10;;
2762;SDS011;1389;51.490;7.338;2022-10-16T01:33:11;226.23;;;39.95;;
2762;SDS011;1389;51.490;7.338;2022-10-16T01:35:45;227.30;;;41.42;;
2762;SDS011;1389;51.490;7.338;2022-10-16T01:38:14;226.40;;;40.00;;
2762;SDS011;1389;51.490;7.338;2022-10-16T01:40:44;226.50;;;40.40;;
2762;SDS011;1389;51.490;7.338;2022-10-16T01:43:15;225.60;;;38.97;;
2762;SDS011;1389;51.490;7.338;2022-10-16T01:45:44;226.50;;;39.78;;
2762;SDS011;1389;51.490;7.338;2022-10-16T01:48:14;226.50;;;39.72;;
2762;SDS011;1389;51.490;7.338;2022-10-16T01:50:43;225.30;;;38.50;;
2762;SDS011;1389;51.490;7.338;2022-10-16T01:53:10;226.88;;;40.58;;
2762;SDS011;1389;51.490;7.338;2022-10-16T01:55:39;227.07;;;41.00;;
2762;SDS011;1389;51.490;7.338;2022-10-16T01:58:10;227.20;;;40.85;;
2762;SDS011;1389;51.490;7.338;2022-10-16T02:00:38;228.82;;;42.28;;
2762;SDS011;1389;51.490;7.338;2022-10-16T02:03:05;228.00;;;42.13;;
2762;SDS011;1389;51.490;7.338;2022-10-16T02:08:08;229.50;;;43.38;;
2762;SDS011;1389;51.490;7.338;2022-10-16T02:10:35;229.03;;;42.67;;
2762;SDS011;1389;51.490;7.338;2022-10-16T02:13:14;227.77;;;41.25;;
2762;SDS011;1389;51.490;7.338;2022-10-16T02:15:42;229.00;;;42.70;;
2762;SDS011;1389;51.490;7.338;2022-10-16T02:18:08;229.20;;;42.80;;
2762;SDS011;1389;51.490;7.338;2022-10-16T02:20:37;229.23;;;43.03;;
2762;SDS011;1389;51.490;7.338;2022-10-16T02:23:06;229.70;;;43.47;;
2762;SDS011;1389;51.490;7.338;2022-10-16T02:25:37;230.77;;;45.27;;
2762;SDS011;1389;51.490;7.338;2022-10-16T02:28:38;231.15;;;45.65;;
2762;SDS011;1389;51.490;7.338;2022-10-16T02:30:58;264.33;;;79.90;;
2762;SDS011;1389;51.490;7.338;2022-10-16T02:33:25;218.80;;;32.22;;
2762;SDS011;1389;51.490;7.338;2022-10-16T02:35:53;223.90;;;39.50;;
2762;SDS011;1389;51.490;7.338;2022-10-16T02:38:20;227.65;;;43.25;;
2762;SDS011;1389;51.490;7.338;2022-10-16T02:40:47;227.68;;;43.45;;
2762;SDS011;1389;51.490;7.338;2022-10-16T02:43:13;225.38;;;41.25;;
2762;SDS011;1389;51.490;7.338;2022-10-16T02:45:40;224.30;;;39.00;;
2762;SDS011;1389;51.490;7.338;2022-10-16T02:48:06;223.88;;;38.05;;
2762;SDS011;1389;51.490;7.338;2022-10-16T02:50:33;221.50;;;35.60;;
2762;SDS011;1389;51.490;7.338;2022-10-16T02:52:59;220.80;;;35.00;;
2762;SDS011;1389;51.490;7.338;2022-10-16T02:55:26;221.40;;;35.77;;
2762;SDS011;1389;51.490;7.338;2022-10-16T02:57:53;219.75;;;33.70;;
2762;SDS011;1389;51.490;7.338;2022-10-16T03:00:19;219.65;;;33.58;;
2762;SDS011;1389;51.490;7.338;2022-10-16T03:02:46;219.48;;;32.97;;
2762;SDS011;1389;51.490;7.338;2022-10-16T03:05:12;219.30;;;32.72;;
2762;SDS011;1389;51.490;7.338;2022-10-16T03:07:39;220.27;;;33.85;;
2762;SDS011;1389;51.490;7.338;2022-10-16T03:10:05;219.20;;;32.90;;
2762;SDS011;1389;51.490;7.338;2022-10-16T03:12:32;219.80;;;33.42;;
2762;SDS011;1389;51.490;7.338;2022-10-16T03:14:59;220.63;;;34.75;;
2762;SDS011;1389;51.490;7.338;2022-10-16T03:17:26;219.32;;;33.05;;
2762;SDS011;1389;51.490;7.338;2022-10-16T03:19:52;218.82;;;32.40;;
2762;SDS011;1389;51.490;7.338;2022-10-16T03:22:18;219.83;;;33.53;;
2762;SDS011;1389;51.490;7.338;2022-10-16T03:24:44;218.20;;;31.30;;
2762;SDS011;1389;51.490;7.338;2022-10-16T03:27:11;219.15;;;32.53;;
2762;SDS011;1389;51.490;7.338;2022-10-16T03:29:37;217.60;;;31.23;;
2762;SDS011;1389;51.490;7.338;2022-10-16T03:32:04;221.30;;;34.75;;
2762;SDS011;1389;51.490;7.338;2022-10-16T03:34:30;222.00;;;35.70;;
2762;SDS011;1389;51.490;7.338;2022-10-16T03:36:56;221.87;;;35.00;;
2762;SDS011;1389;51.490;7.338;2022-10-16T03:39:23;220.48;;;33.95;;
2762;SDS011;1389;51.490;7.338;2022-10-16T03:41:49;220.55;;;34.15;;
2762;SDS011;1389;51.490;7.338;2022-10-16T03:44:15;219.45;;;32.60;;
2762;SDS011;1389;51.490;7.338;2022-10-16T03:46:42;220.88;;;34.75;;
2762;SDS011;1389;51.490;7.338;2022-10-16T03:49:08;224.20;;;38.85;;
2762;SDS011;1389;51.490;7.338;2022-10-16T03:51:34;226.40;;;40.90;;
2762;SDS011;1389;51.490;7.338;2022-10-16T03:54:01;229.68;;;45.05;;
2762;SDS011;1389;51.490;7.338;2022-10-16T03:56:27;228.38;;;43.25;;
2762;SDS011;1389;51.490;7.338;2022-10-16T03:58:53;231.25;;;47.28;;
2762;SDS011;1389;51.490;7.338;2022-10-16T04:01:20;230.00;;;45.90;;
2762;SDS011;1389;51.490;7.338;2022-10-16T04:03:46;231.65;;;47.65;;
2762;SDS011;1389;51.490;7.338;2022-10-16T04:06:12;231.77;;;47.37;;
2762;SDS011;1389;51.490;7.338;2022-10-16T04:08:39;232.20;;;48.60;;
2762;SDS011;1389;51.490;7.338;2022-10-16T04:11:05;231.82;;;47.90;;
2762;SDS011;1389;51.490;7.338;2022-10-16T04:13:31;229.70;;;45.33;;
2762;SDS011;1389;51.490;7.338;2022-10-16T04:15:58;228.73;;;44.05;;
2762;SDS011;1389;51.490;7.338;2022-10-16T04:18:24;227.13;;;42.10;;
2762;SDS011;1389;51.490;7.338;2022-10-16T04:20:52;228.07;;;43.60;;
2762;SDS011;1389;51.490;7.338;2022-10-16T04:23:19;230.75;;;46.50;;
2762;SDS011;1389;51.490;7.338;2022-10-16T04:25:45;230.30;;;46.87;;
2762;SDS011;1389;51.490;7.338;2022-10-16T04:28:12;224.38;;;38.45;;
2762;SDS011;1389;51.490;7.338;2022-10-16T04:30:38;244.80;;;50.78;;
2762;SDS011;1389;51.490;7.338;2022-10-16T04:33:05;227.00;;;41.93;;
2762;SDS011;1389;51.490;7.338;2022-10-16T04:35:31;255.10;;;79.43;;
2762;SDS011;1389;51.490;7.338;2022-10-16T04:37:58;315.67;;;178.10;;
2762;SDS011;1389;51.490;7.338;2022-10-16T04:40:24;309.70;;;164.25;;
2762;SDS011;1389;51.490;7.338;2022-10-16T04:42:50;277.40;;;112.80;;
2762;SDS011;1389;51.490;7.338;2022-10-16T04:45:17;480.70;;;361.83;;
2762;SDS011;1389;51.490;7.338;2022-10-16T04:47:44;379.55;;;280.15;;
2762;SDS011;1389;51.490;7.338;2022-10-16T04:50:10;369.60;;;254.88;;
2762;SDS011;1389;51.490;7.338;2022-10-16T04:52:36;403.38;;;304.83;;
2762;SDS011;1389;51.490;7.338;2022-10-16T04:55:03;363.13;;;243.68;;
2762;SDS011;1389;51.490;7.338;2022-10-16T04:57:29;718.25;;;635.50;;
2762;SDS011;1389;51.490;7.338;2022-10-16T04:59:56;405.27;;;307.50;;
2762;SDS011;1389;51.490;7.338;2022-10-16T05:02:22;379.90;;;269.08;;
2762;SDS011;1389;51.490;7.338;2022-10-16T05:04:48;384.00;;;269.50;;
2762;SDS011;1389;51.490;7.338;2022-10-16T05:07:15;387.00;;;273.70;;
2762;SDS011;1389;51.490;7.338;2022-10-16T05:09:41;373.60;;;251.85;;
2762;SDS011;1389;51.490;7.338;2022-10-16T05:12:07;420.00;;;322.38;;
2762;SDS011;1389;51.490;7.338;2022-10-16T05:14:34;434.70;;;341.80;;
2762;SDS011;1389;51.490;7.338;2022-10-16T05:17:00;370.73;;;250.95;;
2762;SDS011;1389;51.490;7.338;2022-10-16T05:19:26;355.40;;;228.35;;
2762;SDS011;1389;51.490;7.338;2022-10-16T05:21:53;358.13;;;231.70;;
2762;SDS011;1389;51.490;7.338;2022-10-16T05:24:19;361.20;;;237.50;;
2762;SDS011;1389;51.490;7.338;2022-10-16T05:26:45;353.80;;;226.48;;
2762;SDS011;1389;51.490;7.338;2022-10-16T05:29:12;354.80;;;224.70;;
2762;SDS011;1389;51.490;7.338;2022-10-16T05:31:38;344.88;;;208.57;;
2762;SDS011;1389;51.490;7.338;2022-10-16T05:34:05;329.67;;;185.27;;
2762;SDS011;1389;51.490;7.338;2022-10-16T05:36:31;343.10;;;210.90;;
2762;SDS011;1389;51.490;7.338;2022-10-16T05:38:57;296.25;;;138.82;;
2762;SDS011;1389;51.490;7.338;2022-10-16T05:41:24;292.95;;;137.93;;
2762;SDS011;1389;51.490;7.338;2022-10-16T05:43:51;241.93;;;59.13;;
2762;SDS011;1389;51.490;7.338;2022-10-16T05:46:18;227.10;;;43.33;;
2762;SDS011;1389;51.490;7.338;2022-10-16T05:48:44;226.23;;;43.43;;
2762;SDS011;1389;51.490;7.338;2022-10-16T05:51:11;224.13;;;41.20;;
2762;SDS011;1389;51.490;7.338;2022-10-16T05:53:38;224.00;;;41.55;;
2762;SDS011;1389;51.490;7.338;2022-10-16T05:56:05;218.60;;;36.88;;
2762;SDS011;1389;51.490;7.338;2022-10-16T05:58:33;214.82;;;32.08;;
2762;SDS011;1389;51.490;7.338;2022-10-16T06:01:05;208.68;;;26.60;;
2762;SDS011;1389;51.490;7.338;2022-10-16T06:03:32;226.38;;;44.80;;
2762;SDS011;1389;51.490;7.338;2022-10-16T06:05:59;225.02;;;44.05;;
2762;SDS011;1389;51.490;7.338;2022-10-16T06:08:25;228.95;;;46.80;;
2762;SDS011;1389;51.490;7.338;2022-10-16T06:11:01;219.85;;;38.30;;
2762;SDS011;1389;51.490;7.338;2022-10-16T06:13:28;218.70;;;37.38;;
2762;SDS011;1389;51.490;7.338;2022-10-16T06:15:56;220.90;;;40.67;;
2762;SDS011;1389;51.490;7.338;2022-10-16T06:18:22;221.75;;;39.30;;
2762;SDS011;1389;51.490;7.338;2022-10-16T06:20:49;228.70;;;47.45;;
2762;SDS011;1389;51.490;7.338;2022-10-16T06:23:15;250.17;;;74.53;;
2762;SDS011;1389;51.490;7.338;2022-10-16T06:25:41;238.65;;;55.85;;
2762;SDS011;1389;51.490;7.338;2022-10-16T06:28:08;223.73;;;43.50;;
2762;SDS011;1389;51.490;7.338;2022-10-16T06:30:34;208.60;;;26.77;;
2762;SDS011;1389;51.490;7.338;2022-10-16T06:33:00;211.17;;;29.47;;
2762;SDS011;1389;51.490;7.338;2022-10-16T06:35:27;230.32;;;48.63;;
2762;SDS011;1389;51.490;7.338;2022-10-16T06:37:54;290.58;;;130.10;;
2762;SDS011;1389;51.490;7.338;2022-10-16T06:40:21;278.48;;;117.82;;
2762;SDS011;1389;51.490;7.338;2022-10-16T06:42:47;279.48;;;112.53;;
2762;SDS011;1389;51.490;7.338;2022-10-16T06:45:13;368.67;;;262.97;;
2762;SDS011;1389;51.490;7.338;2022-10-16T06:47:40;287.30;;;129.88;;
2762;SDS011;1389;51.490;7.338;2022-10-16T06:50:06;274.08;;;110.25;;
2762;SDS011;1389;51.490;7.338;2022-10-16T06:52:33;312.80;;;138.10;;
2762;SDS011;1389;51.490;7.338;2022-10-16T06:54:59;374.42;;;160.27;;
2762;SDS011;1389;51.490;7.338;2022-10-16T06:57:26;284.08;;;121.20;;
2762;SDS011;1389;51.490;7.338;2022-10-16T06:59:52;324.60;;;184.95;;
2762;SDS011;1389;51.490;7.338;2022-10-16T07:02:19;383.25;;;273.88;;
2762;SDS011;1389;51.490;7.338;2022-10-16T07:04:45;242.63;;;73.95;;
2762;SDS011;1389;51.490;7.338;2022-10-16T07:07:12;371.42;;;244.07;;
2762;SDS011;1389;51.490;7.338;2022-10-16T07:09:38;334.97;;;190.97;;
2762;SDS011;1389;51.490;7.338;2022-10-16T07:12:06;334.47;;;189.00;;
2762;SDS011;1389;51.490;7.338;2022-10-16T07:14:32;343.98;;;202.27;;
2762;SDS011;1389;51.490;7.338;2022-10-16T07:16:58;405.35;;;297.83;;
2762;SDS011;1389;51.490;7.338;2022-10-16T07:19:25;325.77;;;175.85;;
2762;SDS011;1389;51.490;7.338;2022-10-16T07:21:51;306.10;;;144.98;;
2762;SDS011;1389;51.490;7.338;2022-10-16T07:24:17;290.77;;;124.07;;
2762;SDS011;1389;51.490;7.338;2022-10-16T07:26:44;285.55;;;115.90;;
2762;SDS011;1389;51.490;7.338;2022-10-16T07:29:18;275.90;;;100.15;;
2762;SDS011;1389;51.490;7.338;2022-10-16T07:31:45;276.92;;;100.93;;
2762;SDS011;1389;51.490;7.338;2022-10-16T07:34:12;367.42;;;237.50;;
2762;SDS011;1389;51.490;7.338;2022-10-16T07:36:39;411.77;;;298.65;;
2762;SDS011;1389;51.490;7.338;2022-10-16T07:39:05;431.50;;;333.30;;
2762;SDS011;1389;51.490;7.338;2022-10-16T07:41:31;409.45;;;267.05;;
2762;SDS011;1389;51.490;7.338;2022-10-16T07:44:02;347.65;;;211.05;;
2762;SDS011;1389;51.490;7.338;2022-10-16T07:46:29;333.65;;;192.23;;
2762;SDS011;1389;51.490;7.338;2022-10-16T07:48:55;319.60;;;166.30;;
2762;SDS011;1389;51.490;7.338;2022-10-16T07:51:22;300.87;;;134.60;;
2762;SDS011;1389;51.490;7.338;2022-10-16T07:53:49;290.35;;;118.47;;
2762;SDS011;1389;51.490;7.338;2022-10-16T07:56:16;279.97;;;103.47;;
2762;SDS011;1389;51.490;7.338;2022-10-16T07:58:43;296.98;;;128.40;;
2762;SDS011;1389;51.490;7.338;2022-10-16T08:01:11;317.95;;;166.55;;
2762;SDS011;1389;51.490;7.338;2022-10-16T08:03:40;304.23;;;145.05;;
2762;SDS011;1389;51.490;7.338;2022-10-16T08:06:07;274.05;;;97.30;;
2762;SDS011;1389;51.490;7.338;2022-10-16T08:08:34;274.80;;;94.68;;
2762;SDS011;1389;51.490;7.338;2022-10-16T08:11:00;272.52;;;93.15;;
2762;SDS011;1389;51.490;7.338;2022-10-16T08:13:29;297.05;;;132.40;;
2762;SDS011;1389;51.490;7.338;2022-10-16T08:15:55;325.33;;;182.88;;
2762;SDS011;1389;51.490;7.338;2022-10-16T08:18:22;292.80;;;127.28;;
